createdAt,value
2022-12-06T00:01:25.333Z,98.30
2022-12-06T00:03:56.496Z,98.20
2022-12-06T00:06:27.642Z,97.90
2022-12-06T00:08:56.016Z,97.80
2022-12-06T00:11:29.281Z,97.70
2022-12-06T00:14:02.621Z,97.50
2022-12-06T00:16:30.579Z,97.40
2022-12-06T00:18:58.575Z,97.30
2022-12-06T00:21:36.801Z,97.20
2022-12-06T00:24:12.845Z,97.20
2022-12-06T00:26:42.800Z,97.00
2022-12-06T00:29:16.076Z,96.90
2022-12-06T00:31:44.011Z,96.90
2022-12-06T00:34:11.436Z,96.70
2022-12-06T00:36:40.143Z,97.00
2022-12-06T00:39:10.464Z,97.00
2022-12-06T00:41:37.929Z,97.00
2022-12-06T00:44:06.262Z,97.10
2022-12-06T00:46:35.240Z,97.10
2022-12-06T00:49:04.367Z,97.10
2022-12-06T00:51:33.480Z,97.00
2022-12-06T00:54:00.836Z,96.90
2022-12-06T00:56:28.095Z,96.90
2022-12-06T00:58:55.715Z,96.90
2022-12-06T01:01:29.134Z,96.90
2022-12-06T01:04:03.748Z,97.00
2022-12-06T01:06:33.349Z,96.90
2022-12-06T01:09:03.760Z,96.90
2022-12-06T01:11:31.273Z,96.90
2022-12-06T01:13:58.625Z,96.70
2022-12-06T01:16:29.522Z,96.60
2022-12-06T01:18:59.939Z,96.30
2022-12-06T01:21:28.864Z,96.20
2022-12-06T01:23:56.941Z,96.40
2022-12-06T01:26:28.313Z,96.50
2022-12-06T01:28:57.094Z,96.40
2022-12-06T01:31:25.120Z,96.40
2022-12-06T01:33:52.485Z,96.20
2022-12-06T01:36:23.081Z,96.10
2022-12-06T01:38:55.056Z,96.00
2022-12-06T01:41:24.634Z,96.30
2022-12-06T01:43:52.534Z,96.10
2022-12-06T01:46:38.086Z,96.10
2022-12-06T01:49:17.631Z,96.20
2022-12-06T01:51:57.351Z,96.20
2022-12-06T01:54:26.304Z,96.10
2022-12-06T01:56:55.962Z,96.00
2022-12-06T01:59:24.661Z,95.70
2022-12-06T02:01:52.499Z,95.90
2022-12-06T02:04:20.368Z,95.90
2022-12-06T02:06:48.146Z,96.00
2022-12-06T02:09:16.913Z,95.50
2022-12-06T02:11:44.256Z,95.90
2022-12-06T02:14:15.099Z,95.90
2022-12-06T02:16:57.746Z,95.80
2022-12-06T02:19:35.007Z,96.00
2022-12-06T02:22:23.546Z,96.00
2022-12-06T02:25:17.772Z,96.10
2022-12-06T02:28:15.882Z,96.10
2022-12-06T02:31:09.793Z,96.10
2022-12-06T02:33:49.368Z,96.00
2022-12-06T02:36:32.575Z,95.90
2022-12-06T02:39:05.371Z,96.00
2022-12-06T02:41:42.070Z,96.00
2022-12-06T02:44:18.519Z,95.80
2022-12-06T02:46:47.728Z,95.70
2022-12-06T02:49:15.656Z,95.70
2022-12-06T02:51:44.459Z,95.70
2022-12-06T02:54:12.420Z,95.70
2022-12-06T02:56:39.832Z,95.80
2022-12-06T02:59:07.076Z,95.70
2022-12-06T03:01:38.989Z,95.60
2022-12-06T03:04:33.567Z,95.60
2022-12-06T03:07:48.324Z,95.70
2022-12-06T03:10:31.415Z,95.70
2022-12-06T03:13:17.316Z,95.60
2022-12-06T03:15:58.636Z,95.40
2022-12-06T03:18:42.387Z,95.50
2022-12-06T03:21:19.686Z,95.40
2022-12-06T03:23:50.210Z,95.40
2022-12-06T03:26:23.314Z,95.30
2022-12-06T03:28:54.767Z,95.50
2022-12-06T03:31:24.650Z,95.50
2022-12-06T03:34:06.777Z,95.30
2022-12-06T03:36:38.376Z,95.30
2022-12-06T03:39:09.274Z,95.20
2022-12-06T03:41:49.472Z,95.10
2022-12-06T03:44:16.951Z,95.10
2022-12-06T03:46:49.850Z,95.00
2022-12-06T03:49:31.188Z,95.00
2022-12-06T03:51:59.032Z,94.90
2022-12-06T03:54:26.985Z,94.80
2022-12-06T03:56:54.382Z,94.70
2022-12-06T03:59:21.762Z,94.70
2022-12-06T04:01:49.101Z,94.70
2022-12-06T04:04:16.624Z,94.70
2022-12-06T04:06:44.033Z,94.70
2022-12-06T04:09:30.008Z,94.80
2022-12-06T04:11:57.267Z,94.90
2022-12-06T04:14:32.256Z,95.00
2022-12-06T04:17:18.320Z,94.90
2022-12-06T04:19:50.681Z,95.30
2022-12-06T04:22:37.963Z,94.90
2022-12-06T04:25:05.769Z,95.20
2022-12-06T04:27:51.619Z,95.00
2022-12-06T04:30:37.591Z,95.10
2022-12-06T04:33:23.442Z,95.10
2022-12-06T04:36:09.453Z,95.20
2022-12-06T04:38:40.519Z,95.10
2022-12-06T04:41:08.801Z,94.90
2022-12-06T04:43:41.888Z,95.10
2022-12-06T04:46:15.411Z,95.20
2022-12-06T04:48:42.716Z,95.10
2022-12-06T04:51:12.853Z,95.30
2022-12-06T04:53:40.519Z,95.20
2022-12-06T04:56:08.485Z,95.10
2022-12-06T04:58:35.786Z,95.10
2022-12-06T05:01:03.452Z,95.10
2022-12-06T05:03:31.039Z,95.20
2022-12-06T05:05:58.422Z,95.00
2022-12-06T05:08:25.707Z,95.10
2022-12-06T05:10:53.753Z,94.90
2022-12-06T05:13:21.095Z,94.90
2022-12-06T05:15:55.773Z,94.90
2022-12-06T05:18:24.320Z,95.00
2022-12-06T05:21:00.516Z,95.00
2022-12-06T05:23:27.816Z,94.90
2022-12-06T05:26:03.828Z,95.00
2022-12-06T05:28:31.728Z,95.00
2022-12-06T05:30:59.503Z,95.10
2022-12-06T05:33:26.971Z,95.00
2022-12-06T05:35:54.316Z,94.90
2022-12-06T05:38:22.168Z,95.10
2022-12-06T05:40:49.846Z,95.00
2022-12-06T05:43:17.516Z,95.10
2022-12-06T05:45:45.167Z,95.00
2022-12-06T05:48:13.675Z,95.00
2022-12-06T05:50:41.643Z,95.00
2022-12-06T05:53:09.406Z,94.80
2022-12-06T05:55:36.987Z,94.80
2022-12-06T05:58:05.272Z,95.00
2022-12-06T06:00:33.038Z,94.90
2022-12-06T06:03:00.705Z,94.90
2022-12-06T06:05:28.270Z,94.50
2022-12-06T06:07:55.716Z,94.60
2022-12-06T06:10:24.041Z,94.70
2022-12-06T06:12:52.741Z,94.70
2022-12-06T06:15:20.227Z,94.70
2022-12-06T06:17:47.868Z,94.80
2022-12-06T06:20:15.310Z,94.60
2022-12-06T06:22:42.615Z,94.80
2022-12-06T06:25:10.614Z,94.90
2022-12-06T06:27:41.433Z,94.80
2022-12-06T06:30:12.973Z,94.90
2022-12-06T06:32:43.188Z,95.00
2022-12-06T06:35:10.926Z,94.90
2022-12-06T06:37:38.349Z,94.90
2022-12-06T06:40:06.681Z,95.10
2022-12-06T06:42:38.510Z,95.20
2022-12-06T06:45:11.030Z,95.20
2022-12-06T06:47:38.691Z,95.10
2022-12-06T06:50:07.601Z,95.00
2022-12-06T06:52:35.389Z,95.00
2022-12-06T06:55:02.839Z,95.10
2022-12-06T06:57:31.544Z,95.10
2022-12-06T07:00:03.174Z,94.90
2022-12-06T07:02:36.062Z,94.90
2022-12-06T07:05:03.767Z,94.90
2022-12-06T07:07:31.595Z,94.80
2022-12-06T07:09:59.239Z,94.80
2022-12-06T07:12:26.767Z,94.80
2022-12-06T07:14:54.454Z,94.90
2022-12-06T07:17:21.890Z,94.60
2022-12-06T07:19:49.221Z,95.00
2022-12-06T07:22:16.601Z,94.90
2022-12-06T07:24:47.933Z,95.00
2022-12-06T07:27:18.286Z,94.90
2022-12-06T07:29:45.787Z,94.90
2022-12-06T07:32:13.348Z,94.90
2022-12-06T07:34:40.796Z,94.90
2022-12-06T07:37:08.319Z,94.80
2022-12-06T07:39:35.551Z,94.80
2022-12-06T07:42:21.493Z,94.70
2022-12-06T07:45:02.248Z,94.80
2022-12-06T07:47:40.222Z,94.90
2022-12-06T07:50:15.975Z,94.50
2022-12-06T07:52:46.600Z,94.70
2022-12-06T07:55:14.754Z,94.80
2022-12-06T07:57:44.347Z,94.80
2022-12-06T08:00:15.380Z,94.90
2022-12-06T08:02:42.813Z,94.80
2022-12-06T08:05:11.261Z,94.70
2022-12-06T08:07:38.761Z,94.80
2022-12-06T08:10:06.989Z,94.80
2022-12-06T08:12:35.061Z,94.60
2022-12-06T08:15:02.824Z,94.80
2022-12-06T08:17:31.627Z,94.80
2022-12-06T08:19:59.174Z,94.70
2022-12-06T08:22:27.815Z,94.70
2022-12-06T08:24:55.460Z,94.70
2022-12-06T08:27:23.493Z,94.70
2022-12-06T08:29:50.966Z,94.60
2022-12-06T08:32:18.502Z,94.70
2022-12-06T08:34:45.788Z,94.60
2022-12-06T08:37:13.161Z,94.60
2022-12-06T08:39:40.465Z,94.60
2022-12-06T08:42:08.188Z,94.70
2022-12-06T08:44:36.377Z,94.80
2022-12-06T08:47:04.203Z,94.90
2022-12-06T08:49:32.515Z,94.90
2022-12-06T08:52:01.052Z,94.80
2022-12-06T08:54:28.725Z,94.90
2022-12-06T08:56:56.541Z,94.80
2022-12-06T08:59:24.175Z,94.80
2022-12-06T09:01:51.703Z,94.90
2022-12-06T09:04:19.856Z,94.80
2022-12-06T09:06:47.775Z,94.80
2022-12-06T09:09:17.088Z,94.70
2022-12-06T09:11:45.733Z,94.80
2022-12-06T09:14:21.876Z,94.80
2022-12-06T09:16:52.364Z,94.70
2022-12-06T09:19:20.696Z,94.80
2022-12-06T09:21:48.097Z,94.80
2022-12-06T09:24:17.439Z,94.80
2022-12-06T09:26:46.102Z,94.80
2022-12-06T09:29:14.411Z,94.80
2022-12-06T09:31:42.361Z,95.00
2022-12-06T09:34:11.553Z,94.90
2022-12-06T09:37:07.349Z,95.00
2022-12-06T09:39:44.521Z,95.10
2022-12-06T09:43:13.496Z,94.80
2022-12-06T09:45:49.280Z,94.70
2022-12-06T09:48:37.640Z,94.30
2022-12-06T09:51:26.574Z,94.70
2022-12-06T09:54:25.122Z,94.80
2022-12-06T09:56:59.835Z,94.80
2022-12-06T09:59:55.519Z,94.70
2022-12-06T10:02:48.137Z,94.60
2022-12-06T10:05:23.787Z,94.70
2022-12-06T10:08:12.855Z,94.80
2022-12-06T10:11:08.868Z,94.50
2022-12-06T10:14:03.652Z,94.60
2022-12-06T10:17:18.424Z,94.50
2022-12-06T10:20:04.673Z,94.30
2022-12-06T10:22:56.734Z,94.20
2022-12-06T10:25:34.250Z,93.70
2022-12-06T10:28:31.349Z,93.80
2022-12-06T10:31:04.725Z,93.90
2022-12-06T10:33:51.115Z,93.80
2022-12-06T10:36:53.815Z,94.00
2022-12-06T10:39:27.728Z,94.00
2022-12-06T10:42:13.244Z,93.40
2022-12-06T10:45:37.521Z,93.20
2022-12-06T10:48:14.768Z,93.40
2022-12-06T10:50:46.178Z,93.50
2022-12-06T10:53:18.672Z,93.00
2022-12-06T10:55:49.853Z,92.80
2022-12-06T10:58:39.525Z,93.20
2022-12-06T11:01:13.133Z,93.50
2022-12-06T11:04:00.258Z,92.90
2022-12-06T11:06:54.462Z,93.00
2022-12-06T11:09:43.704Z,92.70
2022-12-06T11:12:36.232Z,92.20
2022-12-06T11:15:23.735Z,91.90
2022-12-06T11:18:13.253Z,92.00
2022-12-06T11:21:03.202Z,91.60
2022-12-06T11:23:39.292Z,91.50
2022-12-06T11:26:37.987Z,91.40
2022-12-06T11:29:10.836Z,91.70
2022-12-06T11:31:49.550Z,91.70
2022-12-06T11:34:31.014Z,91.80
2022-12-06T11:37:00.589Z,92.00
2022-12-06T11:39:29.645Z,92.10
2022-12-06T11:42:00.944Z,91.90
2022-12-06T11:44:49.269Z,91.80
2022-12-06T11:47:22.437Z,91.70
2022-12-06T11:49:54.201Z,91.80
2022-12-06T11:52:47.772Z,91.90
2022-12-06T11:55:21.964Z,91.90
2022-12-06T11:57:51.756Z,92.20
2022-12-06T12:00:22.810Z,92.20
2022-12-06T12:02:53.069Z,91.70
2022-12-06T12:05:30.913Z,92.10
2022-12-06T12:08:05.666Z,92.50
2022-12-06T12:10:42.591Z,92.00
2022-12-06T12:13:45.339Z,92.30
2022-12-06T12:16:26.821Z,91.80
2022-12-06T12:19:01.346Z,91.80
2022-12-06T12:21:40.694Z,92.10
2022-12-06T12:25:17.249Z,92.10
2022-12-06T12:27:44.556Z,92.20
2022-12-06T12:30:37.177Z,91.70
2022-12-06T12:33:07.669Z,91.80
2022-12-06T12:36:03.678Z,92.00
2022-12-06T12:38:41.450Z,91.60
2022-12-06T12:41:39.966Z,91.50
2022-12-06T12:44:39.268Z,91.20
2022-12-06T12:47:21.275Z,91.00
2022-12-06T12:50:02.292Z,91.50
2022-12-06T12:52:39.178Z,91.10
2022-12-06T12:55:12.688Z,90.90
2022-12-06T12:57:41.442Z,91.10
2022-12-06T13:00:18.409Z,91.10
2022-12-06T13:02:51.049Z,91.40
2022-12-06T13:05:34.573Z,91.50
2022-12-06T13:08:14.996Z,91.30
2022-12-06T13:10:46.555Z,91.40
2022-12-06T13:13:28.551Z,91.30
2022-12-06T13:15:58.152Z,91.40
2022-12-06T13:18:42.799Z,91.10
2022-12-06T13:21:19.694Z,91.00
2022-12-06T13:23:52.662Z,90.80
2022-12-06T13:26:26.618Z,90.70
2022-12-06T13:28:58.928Z,90.90
2022-12-06T13:31:33.310Z,90.70
2022-12-06T13:34:14.911Z,90.80
2022-12-06T13:36:42.809Z,90.90
2022-12-06T13:39:32.653Z,90.90
2022-12-06T13:42:20.986Z,91.70
2022-12-06T13:44:48.363Z,91.90
2022-12-06T13:47:28.127Z,91.70
2022-12-06T13:50:21.905Z,91.80
2022-12-06T13:52:49.478Z,91.70
2022-12-06T13:55:26.132Z,91.90
2022-12-06T13:57:59.104Z,91.70
2022-12-06T14:00:37.267Z,91.90
2022-12-06T14:03:26.829Z,91.90
2022-12-06T14:06:18.272Z,91.90
2022-12-06T14:09:01.567Z,91.70
2022-12-06T14:11:36.568Z,91.80
2022-12-06T14:14:16.883Z,91.50
2022-12-06T14:16:57.566Z,91.80
2022-12-06T14:19:46.788Z,91.80
2022-12-06T14:22:24.390Z,91.80
2022-12-06T14:25:00.027Z,91.70
2022-12-06T14:27:42.716Z,91.70
2022-12-06T14:30:13.027Z,91.80
2022-12-06T14:32:49.774Z,91.50
2022-12-06T14:35:27.013Z,91.80
2022-12-06T14:38:01.743Z,91.60
2022-12-06T14:40:56.412Z,91.80
2022-12-06T14:43:28.577Z,91.90
2022-12-06T14:45:58.699Z,91.90
2022-12-06T14:48:26.912Z,91.90
2022-12-06T14:51:03.732Z,91.80
2022-12-06T14:53:36.573Z,91.60
2022-12-06T14:56:07.728Z,91.70
2022-12-06T14:58:40.393Z,91.80
2022-12-06T15:01:23.016Z,91.90
2022-12-06T15:04:01.866Z,92.00
2022-12-06T15:06:32.496Z,91.80
2022-12-06T15:08:59.775Z,91.90
2022-12-06T15:11:50.462Z,92.00
2022-12-06T15:14:24.590Z,92.00
2022-12-06T15:17:04.175Z,92.10
2022-12-06T15:19:34.766Z,92.20
2022-12-06T15:22:04.078Z,92.30
2022-12-06T15:24:31.560Z,92.20
2022-12-06T15:26:58.974Z,92.10
2022-12-06T15:29:26.324Z,92.10
2022-12-06T15:31:54.705Z,92.10
2022-12-06T15:34:31.018Z,92.00
2022-12-06T15:37:30.347Z,92.40
2022-12-06T15:39:48.320Z,92.40
2022-12-06T15:42:21.702Z,93.00
2022-12-06T15:44:50.435Z,93.00
2022-12-06T15:47:20.936Z,93.10
2022-12-06T15:49:52.918Z,93.00
2022-12-06T15:52:24.698Z,93.10
2022-12-06T15:54:52.115Z,93.10
2022-12-06T15:57:19.423Z,93.10
2022-12-06T15:59:46.700Z,92.50
2022-12-06T16:02:16.087Z,93.10
2022-12-06T16:04:45.435Z,93.10
2022-12-06T16:07:18.538Z,93.10
2022-12-06T16:09:47.333Z,93.10
2022-12-06T16:12:14.701Z,93.10
2022-12-06T16:14:42.135Z,93.10
2022-12-06T16:17:09.535Z,93.10
2022-12-06T16:19:55.588Z,92.80
2022-12-06T16:22:42.977Z,93.00
2022-12-06T16:25:10.594Z,92.70
2022-12-06T16:27:38.123Z,92.90
2022-12-06T16:30:06.197Z,92.90
2022-12-06T16:32:33.715Z,92.80
2022-12-06T16:35:01.275Z,92.80
2022-12-06T16:37:28.939Z,92.80
2022-12-06T16:39:56.204Z,92.70
2022-12-06T16:42:23.584Z,92.70
2022-12-06T16:44:51.200Z,92.70
2022-12-06T16:49:48.053Z,92.70
2022-12-06T16:52:17.184Z,92.70
2022-12-06T16:54:44.693Z,93.00
2022-12-06T16:57:13.577Z,93.10
2022-12-06T16:59:42.424Z,93.10
2022-12-06T17:02:26.969Z,93.10
2022-12-06T17:04:55.505Z,93.20
2022-12-06T17:07:23.482Z,93.10
2022-12-06T17:09:50.839Z,93.20
2022-12-06T17:12:18.272Z,93.10
2022-12-06T17:14:45.994Z,93.20
2022-12-06T17:17:15.564Z,93.20
2022-12-06T17:19:44.474Z,93.30
2022-12-06T17:22:13.526Z,93.30
2022-12-06T17:24:41.278Z,93.30
2022-12-06T17:27:09.847Z,93.30
2022-12-06T17:29:37.351Z,93.40
2022-12-06T17:32:05.095Z,93.40
2022-12-06T17:34:32.639Z,93.40
2022-12-06T17:37:00.232Z,93.40
2022-12-06T17:39:27.688Z,93.40
2022-12-06T17:42:13.673Z,93.40
2022-12-06T17:44:41.526Z,93.20
2022-12-06T17:47:09.084Z,93.40
2022-12-06T17:49:38.197Z,93.30
2022-12-06T17:52:05.718Z,93.40
2022-12-06T17:54:33.231Z,93.50
2022-12-06T17:57:00.659Z,93.60
2022-12-06T17:59:31.812Z,93.60
2022-12-06T18:02:17.028Z,93.60
2022-12-06T18:04:47.126Z,93.50
2022-12-06T18:07:15.347Z,93.30
2022-12-06T18:09:42.677Z,93.30
2022-12-06T18:12:12.059Z,93.30
2022-12-06T18:14:39.444Z,93.30
2022-12-06T18:17:07.010Z,93.10
2022-12-06T18:19:34.756Z,93.00
2022-12-06T18:22:02.408Z,93.10
2022-12-06T18:24:35.223Z,93.10
2022-12-06T18:27:05.513Z,93.10
2022-12-06T18:29:51.178Z,93.10
2022-12-06T18:32:18.938Z,92.90
2022-12-06T18:34:46.214Z,93.10
2022-12-06T18:37:13.635Z,92.90
2022-12-06T18:39:40.934Z,93.10
2022-12-06T18:42:08.337Z,93.10
2022-12-06T18:44:35.957Z,93.10
2022-12-06T18:47:03.344Z,93.10
2022-12-06T18:49:30.783Z,93.20
2022-12-06T18:51:58.194Z,93.20
2022-12-06T18:54:26.365Z,92.90
2022-12-06T18:56:53.771Z,93.20
2022-12-06T18:59:25.966Z,93.00
2022-12-06T19:01:55.563Z,93.30
2022-12-06T19:04:22.984Z,93.30
2022-12-06T19:06:50.599Z,93.30
2022-12-06T19:09:18.858Z,93.10
2022-12-06T19:11:46.425Z,93.30
2022-12-06T19:14:14.798Z,93.20
2022-12-06T19:16:47.919Z,93.30
2022-12-06T19:19:19.531Z,93.20
2022-12-06T19:21:48.236Z,93.20
2022-12-06T19:24:19.979Z,93.20
2022-12-06T19:26:48.973Z,93.00
2022-12-06T19:29:16.525Z,93.00
2022-12-06T19:31:44.553Z,93.00
2022-12-06T19:34:17.961Z,93.10
2022-12-06T19:36:46.283Z,93.10
2022-12-06T19:39:14.520Z,93.10
2022-12-06T19:42:00.541Z,93.00
2022-12-06T19:44:28.721Z,93.00
2022-12-06T19:46:57.339Z,93.30
2022-12-06T19:49:26.416Z,92.90
2022-12-06T19:51:54.359Z,92.70
2022-12-06T19:54:27.178Z,93.00
2022-12-06T19:56:57.182Z,93.00
2022-12-06T19:59:29.908Z,93.00
2022-12-06T20:01:58.382Z,93.00
2022-12-06T20:04:31.960Z,93.10
2022-12-06T20:07:00.554Z,93.10
2022-12-06T20:09:30.737Z,93.20
2022-12-06T20:12:03.926Z,93.20
2022-12-06T20:14:40.437Z,93.20
2022-12-06T20:17:13.938Z,93.20
2022-12-06T20:19:46.614Z,93.10
2022-12-06T20:22:15.799Z,93.20
2022-12-06T20:24:43.621Z,93.10
2022-12-06T20:27:11.532Z,93.00
2022-12-06T20:29:40.091Z,93.00
2022-12-06T20:32:07.544Z,92.90
2022-12-06T20:34:35.317Z,92.90
2022-12-06T20:37:04.384Z,92.80
2022-12-06T20:39:34.888Z,92.80
2022-12-06T20:42:03.326Z,92.80
2022-12-06T20:44:31.421Z,92.60
2022-12-06T20:46:59.492Z,92.60
2022-12-06T20:49:27.008Z,92.60
2022-12-06T20:51:54.562Z,92.50
2022-12-06T20:54:22.271Z,92.50
2022-12-06T20:56:53.355Z,92.60
2022-12-06T20:59:21.275Z,92.60
2022-12-06T21:01:48.848Z,92.60
2022-12-06T21:04:17.513Z,92.50
2022-12-06T21:06:45.293Z,92.60
2022-12-06T21:09:12.879Z,92.60
2022-12-06T21:11:40.303Z,92.70
2022-12-06T21:14:07.974Z,92.70
2022-12-06T21:16:38.158Z,92.80
2022-12-06T21:19:08.422Z,93.00
2022-12-06T21:21:38.291Z,93.10
2022-12-06T21:24:11.344Z,93.20
2022-12-06T21:26:39.552Z,93.10
2022-12-06T21:29:07.423Z,93.20
2022-12-06T21:31:41.067Z,93.30
2022-12-06T21:34:09.094Z,93.40
2022-12-06T21:36:37.311Z,93.40
2022-12-06T21:39:05.665Z,93.60
2022-12-06T21:41:33.197Z,93.60
2022-12-06T21:44:01.013Z,93.70
2022-12-06T21:46:28.907Z,93.70
2022-12-06T21:48:59.127Z,93.60
2022-12-06T21:51:29.037Z,93.60
2022-12-06T21:53:57.128Z,93.60
2022-12-06T21:56:27.408Z,93.70
2022-12-06T21:58:54.824Z,93.60
2022-12-06T22:01:25.304Z,93.60
2022-12-06T22:03:54.488Z,93.60
2022-12-06T22:06:21.896Z,93.40
2022-12-06T22:08:55.310Z,93.60
2022-12-06T22:11:22.711Z,93.60
2022-12-06T22:13:50.316Z,93.60
2022-12-06T22:16:20.745Z,93.50
2022-12-06T22:18:48.539Z,93.50
2022-12-06T22:21:22.216Z,93.50
2022-12-06T22:23:49.626Z,93.40
2022-12-06T22:26:22.774Z,93.40
2022-12-06T22:28:50.805Z,93.30
2022-12-06T22:31:27.090Z,93.40
2022-12-06T22:33:55.745Z,93.30
2022-12-06T22:36:23.640Z,93.30
2022-12-06T22:38:58.827Z,93.30
2022-12-06T22:41:27.103Z,93.40
2022-12-06T22:43:57.477Z,93.40
2022-12-06T22:46:28.947Z,93.40
2022-12-06T22:48:57.690Z,93.30
2022-12-06T22:51:29.165Z,93.30
2022-12-06T22:53:58.664Z,93.30
2022-12-06T22:56:27.236Z,93.30
2022-12-06T22:58:56.281Z,93.40
2022-12-06T23:01:25.724Z,93.50
2022-12-06T23:03:53.990Z,93.50
2022-12-06T23:06:23.886Z,93.60
2022-12-06T23:08:51.635Z,93.60
2022-12-06T23:11:28.826Z,93.90
2022-12-06T23:13:57.705Z,93.60
2022-12-06T23:16:28.004Z,93.70
2022-12-06T23:18:55.961Z,93.60
2022-12-06T23:21:27.228Z,93.50
2022-12-06T23:24:01.350Z,93.70
2022-12-06T23:26:32.378Z,93.70
2022-12-06T23:29:00.128Z,93.70
2022-12-06T23:31:31.087Z,93.70
2022-12-06T23:34:01.677Z,93.60
2022-12-06T23:36:31.488Z,93.60
2022-12-06T23:38:59.930Z,93.50
2022-12-06T23:41:29.902Z,93.50
2022-12-06T23:43:58.540Z,93.50
2022-12-06T23:46:31.549Z,93.50
2022-12-06T23:48:59.346Z,93.50
2022-12-06T23:51:31.079Z,93.40
2022-12-06T23:53:59.421Z,93.40
2022-12-06T23:56:32.944Z,93.30
2022-12-06T23:59:01.087Z,93.20
